Time;durP1;ratioP1;P1;durP2;ratioP2;P2;SDS_P1;SDS_P2;PMS_P1;PMS_P2;Temp;Humidity;BMP_temperature;BMP_pressure;BME280_temperature;BME280_humidity;BME280_pressure;Samples;Min_cycle;Max_cycle;Signal;HPM_P1;HPM_P2
2022/11/04 03:22:26;;;;;;;30.10;26.00;;;;;;;10.73;100.00;98294.78;6025671;23;20196;-84
2022/11/04 03:24:54;;;;;;;38.17;25.50;;;;;;;10.76;100.00;98281.69;5993220;23;20173;-86
2022/11/04 03:28:00;;;;;;;29.33;26.13;;;;;;;10.82;100.00;98291.38;5992818;23;20612;-84
2022/11/04 03:30:36;;;;;;;29.57;24.80;;;;;;;10.81;100.00;98294.31;6040650;23;20634;-83
2022/11/04 03:33:11;;;;;;;30.50;26.57;;;;;;;10.85;100.00;98284.69;6016553;23;20158;-84
2022/11/04 03:35:38;;;;;;;30.87;25.83;;;;;;;10.82;100.00;98293.25;5996218;23;20158;-85
2022/11/04 03:38:07;;;;;;;31.87;26.80;;;;;;;10.89;100.00;98277.78;6020760;23;20210;-86
2022/11/04 03:40:34;;;;;;;32.40;27.90;;;;;;;10.89;100.00;98275.09;6019197;23;20201;-86
2022/11/04 03:43:13;;;;;;;32.70;26.87;;;;;;;10.93;100.00;98266.28;6002263;23;20169;-85
2022/11/04 03:45:41;;;;;;;30.53;26.53;;;;;;;10.88;100.00;98274.28;6004250;23;20177;-86
2022/11/04 03:48:07;;;;;;;32.83;27.33;;;;;;;10.93;100.00;98287.72;5984723;23;20169;-85
2022/11/04 03:50:43;;;;;;;33.27;27.63;;;;;;;11.00;100.00;98284.84;6031942;23;20205;-82
2022/11/04 03:53:10;;;;;;;34.23;27.60;;;;;;;10.83;100.00;98287.63;6041133;23;20172;-82
2022/11/04 03:55:41;;;;;;;32.33;27.20;;;;;;;10.77;100.00;98294.03;6041923;23;20162;-85
2022/11/04 04:59:13;;;;;;;35.40;29.70;;;;;;;10.59;100.00;98348.72;6034725;23;20276;-87
2022/11/04 05:01:40;;;;;;;36.40;27.93;;;;;;;10.54;100.00;98367.41;6039946;23;20193;-87
2022/11/04 05:04:07;;;;;;;35.63;28.80;;;;;;;10.56;100.00;98394.75;6039631;23;20714;-86
2022/11/04 05:06:33;;;;;;;33.73;27.43;;;;;;;10.64;100.00;98406.09;6039595;23;20166;-87
2022/11/04 05:09:00;;;;;;;35.20;28.77;;;;;;;10.67;100.00;98403.72;6039911;23;20174;-87
2022/11/04 05:11:26;;;;;;;34.97;29.07;;;;;;;10.56;100.00;98399.28;6039506;23;20651;-88
2022/11/04 05:13:53;;;;;;;33.83;28.40;;;;;;;10.61;100.00;98399.38;6039406;23;20166;-86
2022/11/04 05:16:20;;;;;;;35.53;28.37;;;;;;;10.67;100.00;98405.59;6039619;23;20172;-87
2022/11/04 05:18:47;;;;;;;36.90;29.13;;;;;;;10.60;100.00;98397.75;6039994;23;20166;-85
2022/11/04 05:21:14;;;;;;;38.23;29.83;;;;;;;10.54;100.00;98404.09;6014380;23;20205;-86
2022/11/04 05:23:41;;;;;;;34.43;29.73;;;;;;;10.50;100.00;98411.81;6014446;23;20642;-87
2022/11/04 05:26:08;;;;;;;34.03;28.83;;;;;;;10.45;100.00;98409.06;6014045;23;20169;-85
2022/11/04 05:28:34;;;;;;;37.70;29.13;;;;;;;10.43;100.00;98411.19;6039210;23;20173;-85
2022/11/04 05:31:03;;;;;;;35.73;29.97;;;;;;;10.52;100.00;98406.22;6014041;23;20181;-86
2022/11/04 05:33:29;;;;;;;35.47;29.33;;;;;;;10.48;100.00;98397.06;6039124;23;20185;-85
2022/11/04 05:36:10;;;;;;;34.93;28.47;;;;;;;10.75;100.00;98399.78;6038941;23;20794;-84
2022/11/04 05:38:36;;;;;;;34.10;28.10;;;;;;;10.60;100.00;98403.91;6039371;23;20244;-85
2022/11/04 05:41:04;;;;;;;38.77;30.27;;;;;;;10.61;100.00;98407.41;6014494;23;20189;-86
2022/11/04 05:43:31;;;;;;;38.07;29.47;;;;;;;10.49;100.00;98415.56;6014089;23;20177;-84
2022/11/04 05:45:58;;;;;;;34.90;28.87;;;;;;;10.42;100.00;98403.41;6039122;23;20162;-86
2022/11/04 05:48:25;;;;;;;35.60;28.47;;;;;;;10.51;100.00;98400.03;6039064;23;20245;-84
2022/11/04 05:50:52;;;;;;;35.23;29.30;;;;;;;10.47;100.00;98403.47;6038874;23;20193;-85
2022/11/04 05:53:18;;;;;;;35.50;28.80;;;;;;;10.45;100.00;98419.78;6039059;23;20173;-83
2022/11/04 05:55:45;;;;;;;35.60;28.90;;;;;;;10.53;100.00;98429.25;6014084;23;20514;-83
2022/11/04 05:58:11;;;;;;;34.53;28.57;;;;;;;10.55;100.00;98435.16;6038600;23;20189;-83
2022/11/04 06:00:38;;;;;;;34.50;28.37;;;;;;;10.60;100.00;98425.34;6038651;23;20982;-84
2022/11/04 06:03:05;;;;;;;37.33;29.03;;;;;;;10.67;100.00;98429.72;6039102;23;20514;-84
2022/11/04 06:05:34;;;;;;;36.37;29.30;;;;;;;10.77;100.00;98429.84;6038740;23;20166;-83
2022/11/04 06:08:01;;;;;;;37.00;30.13;;;;;;;10.80;100.00;98437.38;6039305;23;20163;-84
2022/11/04 06:10:27;;;;;;;39.30;30.77;;;;;;;10.71;100.00;98439.69;6038895;23;20182;-85
2022/11/04 06:12:54;;;;;;;38.43;30.20;;;;;;;10.73;100.00;98437.53;5990559;23;20174;-85
2022/11/04 06:15:21;;;;;;;41.20;31.77;;;;;;;10.76;100.00;98431.69;6038895;23;20170;-85
2022/11/04 06:17:47;;;;;;;39.10;31.93;;;;;;;10.81;100.00;98439.81;6038956;23;20166;-84
2022/11/04 06:20:15;;;;;;;40.57;31.57;;;;;;;10.80;100.00;98437.38;6039004;23;20189;-83
2022/11/04 06:22:41;;;;;;;37.47;30.33;;;;;;;10.74;100.00;98438.34;6038577;23;20205;-85
2022/11/04 06:25:08;;;;;;;39.63;30.23;;;;;;;10.78;100.00;98437.59;6013524;23;20184;-86
2022/11/04 06:27:35;;;;;;;39.00;30.40;;;;;;;10.84;100.00;98443.84;6013678;23;20170;-84
2022/11/04 06:30:02;;;;;;;38.93;29.73;;;;;;;10.92;100.00;98464.81;6014144;23;20174;-84
2022/11/04 06:32:29;;;;;;;38.37;30.13;;;;;;;10.95;100.00;98467.03;6039215;23;20173;-85
2022/11/04 06:34:55;;;;;;;37.70;29.30;;;;;;;11.00;100.00;98467.09;6014310;23;20180;-86
2022/11/04 06:37:22;;;;;;;36.27;29.70;;;;;;;10.94;100.00;98476.94;6039127;23;20511;-84
2022/11/04 06:39:48;;;;;;;39.17;29.77;;;;;;;10.92;100.00;98475.53;6039295;23;20172;-85
2022/11/04 06:42:15;;;;;;;42.67;31.03;;;;;;;10.93;100.00;98477.19;6039116;23;20181;-86
2022/11/04 06:44:42;;;;;;;40.83;31.57;;;;;;;10.96;100.00;98471.34;5991588;23;20169;-86
2022/11/04 06:47:08;;;;;;;43.67;32.13;;;;;;;10.93;100.00;98477.19;6013921;23;20173;-88
2022/11/04 06:49:35;;;;;;;46.43;33.17;;;;;;;11.06;100.00;98471.44;5990100;23;20170;-86
2022/11/04 06:52:02;;;;;;;43.40;32.70;;;;;;;11.03;100.00;98480.78;6014352;23;20179;-86
2022/11/04 06:54:28;;;;;;;47.70;33.00;;;;;;;10.94;100.00;98479.63;6014451;23;20177;-86
2022/11/04 06:56:55;;;;;;;44.37;33.23;;;;;;;10.98;100.00;98483.41;6038929;23;20221;-88
2022/11/04 06:59:22;;;;;;;46.33;33.63;;;;;;;11.01;100.00;98479.44;6013899;23;20210;-88
2022/11/04 07:01:50;;;;;;;45.60;34.27;;;;;;;10.98;100.00;98479.91;5990531;23;20659;-87
2022/11/04 07:04:17;;;;;;;46.07;33.00;;;;;;;11.01;100.00;98498.19;6038796;23;20176;-88
2022/11/04 07:06:44;;;;;;;44.87;33.57;;;;;;;11.04;100.00;98500.38;6038558;23;20165;-87
2022/11/04 07:09:12;;;;;;;42.90;32.43;;;;;;;10.97;100.00;98505.91;5989989;23;20628;-87
2022/11/04 07:11:39;;;;;;;45.60;33.87;;;;;;;11.06;100.00;98505.50;6013581;23;20200;-87
2022/11/04 07:14:07;;;;;;;43.43;33.00;;;;;;;11.06;100.00;98505.50;6013924;23;20174;-87
2022/11/04 07:16:34;;;;;;;43.60;32.80;;;;;;;11.04;100.00;98497.69;6013432;23;20201;-88
2022/11/04 07:19:01;;;;;;;45.03;33.33;;;;;;;11.11;100.00;98494.81;6013440;23;20174;-89
2022/11/04 07:21:28;;;;;;;42.67;33.13;;;;;;;11.15;100.00;98494.06;5989627;23;20281;-87
2022/11/04 07:23:54;;;;;;;42.53;32.93;;;;;;;11.19;100.00;98489.84;6013311;23;20181;-87
2022/11/04 07:26:21;;;;;;;43.10;33.43;;;;;;;11.27;100.00;98499.28;6013344;23;20166;-89
2022/11/04 07:28:48;;;;;;;42.80;32.67;;;;;;;11.28;100.00;98498.25;6012942;23;20166;-88
2022/11/04 07:31:16;;;;;;;41.27;31.90;;;;;;;11.27;100.00;98502.78;6037744;23;20166;-88
2022/11/04 07:33:48;;;;;;;43.87;32.93;;;;;;;11.27;100.00;98489.38;5990301;23;20534;-88
2022/11/04 07:36:16;;;;;;;41.67;31.13;;;;;;;11.22;100.00;98489.31;5968117;23;20170;-89
2022/11/04 07:38:42;;;;;;;45.43;33.90;;;;;;;11.26;100.00;98485.06;6011815;23;20165;-88
2022/11/04 07:41:10;;;;;;;42.47;32.17;;;;;;;11.35;100.00;98474.69;6035639;23;20500;-88
2022/11/04 07:43:36;;;;;;;41.50;32.47;;;;;;;11.33;100.00;98472.28;6011412;23;20227;-89
2022/11/04 07:46:09;;;;;;;44.70;32.63;;;;;;;11.38;100.00;98480.38;5966602;23;20185;-89
2022/11/04 07:48:36;;;;;;;41.07;33.50;;;;;;;11.46;100.00;98487.16;6014499;23;20174;-88
2022/11/04 07:51:05;;;;;;;42.20;33.33;;;;;;;11.46;100.00;98487.16;6015026;23;20181;-88
2022/11/04 07:53:31;;;;;;;42.80;32.53;;;;;;;11.45;100.00;98472.94;6040285;23;20178;-89
2022/11/04 07:56:02;;;;;;;44.47;33.27;;;;;;;11.50;100.00;98466.81;5992058;23;20630;-87
2022/11/04 07:58:29;;;;;;;44.90;33.50;;;;;;;11.49;100.00;98454.47;6013957;23;20206;-89
2022/11/04 08:01:04;;;;;;;47.77;32.20;;;;;;;11.53;100.00;98466.31;6014967;23;20167;-88
2022/11/04 08:03:31;;;;;;;45.90;33.37;;;;;;;11.57;100.00;98469.31;6015273;23;20155;-90
2022/11/04 08:05:59;;;;;;;46.80;32.93;;;;;;;11.53;100.00;98455.56;5991404;23;20171;-89
2022/11/04 08:08:27;;;;;;;44.90;33.10;;;;;;;11.73;100.00;98446.94;6015164;23;20226;-89
2022/11/04 08:10:55;;;;;;;48.40;31.87;;;;;;;11.65;100.00;98444.69;6039817;23;20185;-88
2022/11/04 08:13:25;;;;;;;46.00;33.23;;;;;;;11.65;100.00;98450.06;6039856;23;20195;-89
2022/11/04 08:15:52;;;;;;;47.13;32.97;;;;;;;11.71;100.00;98463.25;5991544;23;20253;-89
2022/11/04 08:18:19;;;;;;;46.67;31.93;;;;;;;11.61;100.00;98481.97;6015236;23;20196;-89
2022/11/04 08:20:48;;;;;;;51.87;34.40;;;;;;;11.51;100.00;98481.03;5991778;23;20171;-89
2022/11/04 08:23:16;;;;;;;49.07;32.97;;;;;;;11.53;100.00;98460.94;6014725;23;20201;-88
2022/11/04 08:25:42;;;;;;;47.90;32.53;;;;;;;11.51;100.00;98464.94;6014276;23;20174;-87
2022/11/04 08:28:15;;;;;;;44.50;33.13;;;;;;;11.54;100.00;98459.06;6039760;23;20501;-88
2022/11/04 08:30:58;;;;;;;46.73;32.77;;;;;;;11.59;100.00;98454.56;6017009;23;20214;-88
2022/11/04 08:33:26;;;;;;;47.10;32.03;;;;;;;11.60;100.00;98445.47;5991692;23;20543;-87
2022/11/04 08:35:55;;;;;;;47.20;31.50;;;;;;;11.69;100.00;98451.97;6039639;23;20163;-88
2022/11/04 08:38:22;;;;;;;48.10;32.33;;;;;;;11.68;100.00;98455.72;6015508;23;20174;-88
2022/11/04 08:40:48;;;;;;;44.33;31.43;;;;;;;11.66;100.00;98441.78;6014179;23;20162;-87
2022/11/04 08:43:15;;;;;;;46.60;31.47;;;;;;;11.73;100.00;98428.16;6014402;23;20197;-89
2022/11/04 08:45:44;;;;;;;48.43;31.97;;;;;;;11.88;100.00;98418.38;6039141;23;20173;-88
2022/11/04 08:48:12;;;;;;;43.40;31.23;;;;;;;12.03;100.00;98408.81;6014140;23;20175;-89
2022/11/04 08:50:39;;;;;;;42.57;30.43;;;;;;;12.17;100.00;98416.16;5991425;23;20166;-90
2022/11/04 08:53:05;;;;;;;38.50;26.83;;;;;;;12.14;100.00;98424.72;5990762;23;20212;-88
2022/11/04 08:55:33;;;;;;;33.77;25.83;;;;;;;12.06;100.00;98422.50;6014568;23;20173;-87
2022/11/04 08:58:00;;;;;;;31.40;23.57;;;;;;;11.81;100.00;98422.31;5991370;23;20530;-88
2022/11/04 09:00:27;;;;;;;32.70;24.13;;;;;;;11.68;100.00;98430.75;6038945;23;20150;-87
2022/11/04 09:02:54;;;;;;;28.83;23.23;;;;;;;11.67;100.00;98405.81;6038771;23;20194;-88
2022/11/04 09:05:21;;;;;;;30.53;23.73;;;;;;;11.73;100.00;98390.59;6038882;23;20167;-88
2022/11/04 09:07:48;;;;;;;28.57;23.37;;;;;;;11.83;100.00;98372.69;6013672;23;20170;-87
2022/11/04 09:10:14;;;;;;;29.90;22.43;;;;;;;11.91;100.00;98390.19;6039661;23;20183;-87
2022/11/04 09:12:42;;;;;;;26.63;21.37;;;;;;;11.84;100.00;98390.44;6039580;23;20178;-89
2022/11/04 09:15:09;;;;;;;25.53;20.83;;;;;;;11.84;100.00;98387.75;6014009;23;20183;-89
2022/11/04 09:17:36;;;;;;;25.33;20.17;;;;;;;11.85;100.00;98386.66;6013723;23;20169;-87
2022/11/04 09:20:04;;;;;;;22.37;19.27;;;;;;;11.74;100.00;98393.03;6013893;23;20174;-87
2022/11/04 09:22:31;;;;;;;25.47;19.33;;;;;;;11.70;100.00;98386.53;5990924;23;20193;-87
2022/11/04 09:24:57;;;;;;;22.53;18.27;;;;;;;11.75;100.00;98378.56;5991180;23;20162;-87
2022/11/04 09:27:24;;;;;;;21.27;17.17;;;;;;;11.96;100.00;98365.25;5991398;23;20515;-86
2022/11/04 09:29:51;;;;;;;21.83;17.23;;;;;;;12.08;100.00;98363.19;6014874;23;20260;-85
2022/11/04 09:32:17;;;;;;;19.60;16.03;;;;;;;12.22;100.00;98372.41;6014979;23;20272;-83
2022/11/04 09:34:44;;;;;;;20.83;15.70;;;;;;;12.24;100.00;98368.38;6040153;23;20189;-84
2022/11/04 09:37:11;;;;;;;18.50;16.40;;;;;;;12.07;100.00;98370.44;6039428;23;20170;-86
2022/11/04 09:39:37;;;;;;;19.47;15.73;;;;;;;12.02;100.00;98359.69;6015370;23;20240;-88
2022/11/04 09:42:40;;;;;;;17.77;15.47;;;;;;;11.99;100.00;98370.91;6039959;23;20527;-89
2022/11/04 09:45:17;;;;;;;19.27;15.50;;;;;;;11.80;100.00;98369.72;5934249;23;20482;-83
2022/11/04 09:47:50;;;;;;;18.63;16.30;;;;;;;11.67;100.00;98360.19;6038112;23;20630;-84
2022/11/04 09:50:23;;;;;;;19.27;16.77;;;;;;;11.65;100.00;98354.28;6014489;23;20264;-87
2022/11/04 09:52:54;;;;;;;18.93;16.70;;;;;;;11.51;100.00;98349.63;6015133;23;20158;-86
2022/11/04 09:55:36;;;;;;;18.90;16.87;;;;;;;11.58;100.00;98351.00;5991747;23;20583;-85
2022/11/04 09:58:04;;;;;;;23.00;18.43;;;;;;;11.53;100.00;98361.69;5968593;23;20592;-85
2022/11/04 10:00:34;;;;;;;22.53;17.20;;;;;;;11.55;100.00;98345.34;6014449;23;20166;-86
2022/11/04 10:11:34;;;;;;;16.70;14.13;;;;;;;11.41;100.00;98318.16;6056135;23;20642;-87
2022/11/04 10:14:14;;;;;;;17.77;14.33;;;;;;;11.38;100.00;98321.38;5989026;24;20171;-84
2022/11/04 10:16:54;;;;;;;17.10;13.70;;;;;;;11.22;100.00;98309.69;6044531;23;20153;-83
2022/11/04 10:36:56;;;;;;;20.63;15.93;;;;;;;10.85;100.00;98290.88;6022534;23;20240;-82
2022/11/04 10:54:39;;;;;;;20.40;16.20;;;;;;;10.60;100.00;98283.38;6044695;23;20261;-85
2022/11/04 10:57:06;;;;;;;19.90;16.67;;;;;;;10.71;100.00;98299.56;5993533;23;20158;-85
2022/11/04 11:07:57;;;;;;;21.10;17.03;;;;;;;10.71;100.00;98262.06;6036704;23;20715;-87
2022/11/04 11:11:18;;;;;;;19.97;16.00;;;;;;;10.76;100.00;98265.59;5982629;24;20201;-86
2022/11/04 11:14:48;;;;;;;19.60;15.43;;;;;;;10.78;100.00;98251.97;5891132;24;20206;-84
2022/11/04 11:17:58;;;;;;;19.57;16.30;;;;;;;10.79;100.00;98240.97;5958558;24;20782;-87
2022/11/04 11:21:09;;;;;;;19.30;16.37;;;;;;;10.62;100.00;98245.66;5822646;24;20179;-87
2022/11/04 11:23:38;;;;;;;15.93;13.13;;;;;;;10.61;100.00;98244.03;5784268;24;20259;-86
2022/11/04 11:46:00;;;;;;;17.27;14.57;;;;;;;10.59;100.00;98233.56;6016632;23;20220;-85
2022/11/04 11:48:43;;;;;;;27.53;24.57;;;;;;;10.54;100.00;98241.53;5955181;24;20176;-87
2022/11/04 11:51:13;;;;;;;22.53;19.23;;;;;;;10.57;100.00;98233.00;5988337;23;20240;-86
2022/11/04 11:54:00;;;;;;;14.43;12.83;;;;;;;10.78;100.00;98209.09;6013638;23;20506;-85
2022/11/04 12:59:41;;;;;;;5.23;4.60;;;;;;;10.74;100.00;98210.66;6022012;23;20357;-88
2022/11/04 13:02:17;;;;;;;5.10;4.67;;;;;;;10.87;100.00;98194.19;5987300;23;20182;-89
2022/11/04 13:04:55;;;;;;;5.50;4.23;;;;;;;10.91;100.00;98201.44;5964530;23;20204;-89
2022/11/04 13:07:27;;;;;;;5.53;5.03;;;;;;;10.90;100.00;98212.41;5964401;23;20278;-89
2022/11/04 13:09:58;;;;;;;5.50;5.00;;;;;;;10.86;100.00;98193.38;5987050;23;20609;-88
2022/11/04 13:12:29;;;;;;;5.60;4.83;;;;;;;10.83;100.00;98198.41;5987068;23;20599;-89
2022/11/04 13:15:01;;;;;;;5.80;5.30;;;;;;;10.88;100.00;98191.22;5940861;23;20207;-90
2022/11/04 13:17:32;;;;;;;5.40;4.87;;;;;;;10.86;100.00;98189.88;5964347;23;20170;-90
2022/11/04 13:20:12;;;;;;;5.53;5.00;;;;;;;10.83;100.00;98191.19;5986806;23;20171;-89
2022/11/04 13:22:43;;;;;;;7.80;6.73;;;;;;;10.76;100.00;98189.78;5964176;23;20222;-88
2022/11/04 13:25:14;;;;;;;7.50;6.17;;;;;;;10.64;100.00;98189.94;5987243;23;20272;-89
2022/11/04 13:27:44;;;;;;;5.83;5.23;;;;;;;10.74;100.00;98181.19;5940777;23;20212;-88
2022/11/04 13:34:26;;;;;;;61.03;36.37;;;;;;;10.51;100.00;98175.09;6042859;23;20208;-87
2022/11/04 13:37:10;;;;;;;26.77;20.57;;;;;;;10.46;100.00;98182.28;5994197;23;20174;-87
2022/11/04 13:39:51;;;;;;;20.50;17.17;;;;;;;10.61;100.00;98179.75;5972261;23;20174;-87
2022/11/04 14:16:26;;;;;;;4.80;4.13;;;;;;;10.24;100.00;98232.38;6036558;23;20711;-86
2022/11/04 14:18:53;;;;;;;4.50;4.10;;;;;;;10.22;100.00;98240.66;5965657;23;20620;-87
2022/11/04 14:21:23;;;;;;;4.40;4.00;;;;;;;10.26;100.00;98254.38;5943657;23;20185;-88
2022/11/04 14:35:56;;;;;;;3.13;2.77;;;;;;;10.09;100.00;98249.03;6040772;23;20265;-86
2022/11/04 16:36:59;;;;;;;0.50;0.30;;;;;;;7.57;100.00;98362.81;6051310;23;20209;-84
2022/11/04 16:40:11;;;;;;;0.33;0.33;;;;;;;7.51;100.00;98351.25;6001164;23;20161;-84
2022/11/04 16:43:03;;;;;;;0.10;0.10;;;;;;;7.55;100.00;98365.75;6023798;23;20252;-83
2022/11/04 16:46:00;;;;;;;0.57;0.33;;;;;;;7.79;100.00;98385.22;6047216;23;20157;-84
2022/11/04 16:48:49;;;;;;;0.43;0.20;;;;;;;7.71;100.00;98369.56;6045783;23;20194;-84
2022/11/04 16:51:36;;;;;;;0.30;0.27;;;;;;;7.73;100.00;98370.97;6041016;23;20163;-84
2022/11/04 16:54:20;;;;;;;0.90;0.20;;;;;;;7.75;100.00;98390.19;6066627;23;20162;-84
2022/11/04 16:57:10;;;;;;;0.97;0.30;;;;;;;7.68;100.00;98386.84;6023011;23;20144;-83
2022/11/04 16:59:50;;;;;;;0.30;0.30;;;;;;;7.90;100.00;98403.06;5995815;23;20157;-84
2022/11/04 17:02:36;;;;;;;1.90;0.40;;;;;;;7.88;100.00;98403.31;6043604;23;20158;-83
2022/11/04 17:05:22;;;;;;;0.20;0.20;;;;;;;7.80;100.00;98406.31;6067244;23;20165;-84
2022/11/04 17:08:23;;;;;;;0.30;0.30;;;;;;;7.78;100.00;98400.41;6047449;23;20171;-83
2022/11/04 17:11:05;;;;;;;0.47;0.30;;;;;;;7.80;100.00;98408.97;6044045;23;20161;-83
2022/11/04 17:13:34;;;;;;;0.47;0.30;;;;;;;7.81;100.00;98417.78;6012986;23;20173;-83
2022/11/04 17:16:12;;;;;;;0.77;0.20;;;;;;;7.82;100.00;98428.22;6065253;23;20205;-83
2022/11/04 17:19:20;;;;;;;0.57;0.50;;;;;;;7.75;100.00;98434.69;6044375;23;20165;-84
2022/11/04 17:22:01;;;;;;;0.30;0.20;;;;;;;7.83;100.00;98434.38;6059946;23;20173;-82
2022/11/04 17:24:38;;;;;;;0.30;0.30;;;;;;;7.88;100.00;98434.50;6054759;23;20197;-83
2022/11/04 17:27:13;;;;;;;0.30;0.30;;;;;;;7.80;100.00;98429.47;6041633;23;20148;-83
2022/11/04 17:29:43;;;;;;;0.33;0.33;;;;;;;7.87;100.00;98440.88;6017418;23;20181;-83
2022/11/04 17:36:54;;;;;;;0.27;0.23;;;;;;;7.84;100.00;98442.13;6036750;23;20266;-84
2022/11/04 17:39:46;;;;;;;0.20;0.20;;;;;;;7.92;100.00;98447.13;6037360;23;20182;-83
2022/11/04 17:50:17;;;;;;;0.80;0.20;;;;;;;8.07;100.00;98462.66;6036422;23;20178;-84
2022/11/04 17:52:59;;;;;;;0.40;0.40;;;;;;;7.92;100.00;98465.81;6036006;23;20154;-83
2022/11/04 17:55:28;;;;;;;0.33;0.20;;;;;;;7.98;100.00;98466.72;6035298;23;20259;-84
2022/11/04 17:58:03;;;;;;;0.97;0.20;;;;;;;8.02;100.00;98459.91;6012559;23;20155;-84
2022/11/04 18:00:41;;;;;;;0.20;0.20;;;;;;;8.01;100.00;98470.78;6013446;23;20179;-83
2022/11/04 18:03:13;;;;;;;0.20;0.20;;;;;;;8.03;100.00;98460.69;6034187;23;20198;-83
2022/11/04 18:05:47;;;;;;;0.40;0.40;;;;;;;7.97;100.00;98463.25;6035014;23;20164;-83
2022/11/04 18:08:15;;;;;;;0.20;0.20;;;;;;;8.16;100.00;98473.81;6010670;23;20227;-83
2022/11/04 18:10:58;;;;;;;0.27;0.27;;;;;;;8.18;100.00;98482.41;6035150;23;20177;-83
2022/11/04 18:13:40;;;;;;;0.20;0.20;;;;;;;8.14;100.00;98475.91;6013876;23;20157;-83
2022/11/04 18:16:11;;;;;;;0.37;0.37;;;;;;;8.36;100.00;98484.97;6032668;23;20158;-83
2022/11/04 18:18:46;;;;;;;0.20;0.20;;;;;;;8.20;100.00;98491.00;6013603;23;20234;-84
2022/11/04 18:21:16;;;;;;;0.30;0.30;;;;;;;8.21;100.00;98498.75;6036526;23;20248;-83
2022/11/04 18:23:51;;;;;;;0.50;0.50;;;;;;;8.19;100.00;98498.19;6035050;23;20172;-83
2022/11/04 18:26:20;;;;;;;0.30;0.30;;;;;;;8.24;100.00;98490.28;6034216;23;20195;-83
2022/11/04 18:28:53;;;;;;;0.97;0.50;;;;;;;8.27;100.00;98492.50;6035169;23;20202;-82
2022/11/04 18:31:32;;;;;;;0.50;0.50;;;;;;;8.29;100.00;98486.94;6032402;23;20169;-82
2022/11/04 18:34:09;;;;;;;0.47;0.47;;;;;;;8.23;100.00;98496.66;6036698;23;20198;-83
2022/11/04 18:36:46;;;;;;;2.07;0.60;;;;;;;8.19;100.00;98508.84;6035993;23;20210;-83
2022/11/04 18:39:32;;;;;;;0.50;0.50;;;;;;;8.18;100.00;98495.72;6036776;23;20171;-84
2022/11/04 18:42:09;;;;;;;0.63;0.60;;;;;;;8.39;100.00;98497.88;6035902;23;20171;-83
2022/11/04 18:44:38;;;;;;;0.90;0.50;;;;;;;8.26;100.00;98504.19;6036336;23;20225;-83
2022/11/04 18:47:54;;;;;;;0.57;0.40;;;;;;;8.22;100.00;98494.22;5977935;24;20182;-83
2022/11/04 18:50:38;;;;;;;0.60;0.60;;;;;;;8.33;100.00;98520.13;5977693;24;20175;-83
2022/11/04 18:53:12;;;;;;;0.60;0.50;;;;;;;8.45;100.00;98512.13;5955122;24;20171;-83
2022/11/04 18:55:40;;;;;;;1.27;0.50;;;;;;;8.33;100.00;98499.59;5977828;24;20271;-83
2022/11/04 18:58:14;;;;;;;0.57;0.40;;;;;;;8.45;100.00;98502.25;5978656;24;20192;-83
2022/11/04 19:00:43;;;;;;;1.27;0.80;;;;;;;8.45;100.00;98504.94;5951784;24;20196;-83
2022/11/04 19:03:15;;;;;;;1.17;0.90;;;;;;;8.47;100.00;98518.03;5954869;24;20187;-83
2022/11/04 19:05:43;;;;;;;0.73;0.60;;;;;;;8.47;100.00;98539.41;5955628;24;20172;-83
2022/11/04 19:08:11;;;;;;;0.40;0.40;;;;;;;8.36;100.00;98536.50;5954261;24;20224;-83
2022/11/04 19:10:39;;;;;;;0.50;0.40;;;;;;;8.37;100.00;98537.31;5953709;24;20196;-83
2022/11/04 19:13:28;;;;;;;0.50;0.50;;;;;;;8.27;100.00;98531.69;5953807;24;20213;-83
2022/11/04 19:16:05;;;;;;;1.07;0.50;;;;;;;8.39;100.00;98545.91;5976787;24;20168;-83
2022/11/04 19:18:35;;;;;;;0.30;0.30;;;;;;;8.40;100.00;98531.50;5931302;24;20175;-83
2022/11/04 19:21:11;;;;;;;1.33;0.67;;;;;;;8.37;100.00;98537.31;5977539;24;20519;-83
2022/11/04 19:23:41;;;;;;;0.30;0.30;;;;;;;8.47;100.00;98550.09;5958385;23;20187;-83
2022/11/04 19:26:21;;;;;;;0.50;0.50;;;;;;;8.44;100.00;98534.53;6032053;23;20154;-82
2022/11/04 19:28:49;;;;;;;0.63;0.60;;;;;;;8.28;100.00;98539.47;6055538;23;20170;-83
2022/11/04 19:31:22;;;;;;;1.40;0.90;;;;;;;8.45;100.00;98546.81;6031999;23;20159;-82
2022/11/04 19:33:59;;;;;;;1.70;1.50;;;;;;;8.51;100.00;98564.59;6010561;23;20169;-83
2022/11/04 19:36:34;;;;;;;1.13;0.90;;;;;;;8.36;100.00;98559.69;6033545;23;20190;-83
2022/11/04 19:39:03;;;;;;;1.97;0.50;;;;;;;8.32;100.00;98578.03;6025963;23;20187;-82
2022/11/04 19:44:17;;;;;;;2.00;1.57;;;;;;;8.52;100.00;98585.72;6025878;23;20184;-81
2022/11/04 19:46:44;;;;;;;2.13;1.27;;;;;;;8.52;100.00;98593.72;6024179;23;20197;-82
2022/11/04 19:49:11;;;;;;;0.70;0.70;;;;;;;8.33;100.00;98605.53;6026587;23;20171;-82
2022/11/04 19:51:39;;;;;;;0.50;0.40;;;;;;;8.31;100.00;98612.94;6023599;23;20170;-82
2022/11/04 19:54:06;;;;;;;0.40;0.40;;;;;;;8.47;100.00;98620.31;6024879;23;20504;-82
2022/11/04 19:56:35;;;;;;;0.63;0.50;;;;;;;8.43;100.00;98607.66;6000829;23;20179;-82
2022/11/04 19:59:06;;;;;;;1.10;0.40;;;;;;;8.62;100.00;98618.00;6001988;23;20241;-82
2022/11/04 20:01:33;;;;;;;0.30;0.30;;;;;;;8.61;100.00;98612.88;6025410;23;20158;-82
2022/11/04 20:04:02;;;;;;;0.53;0.40;;;;;;;8.53;100.00;98605.22;6026000;23;20182;-82
2022/11/04 20:06:30;;;;;;;0.40;0.40;;;;;;;8.44;100.00;98617.28;6026172;23;20174;-81
2022/11/04 20:09:03;;;;;;;0.50;0.40;;;;;;;8.49;100.00;98609.41;6026445;23;20171;-81
2022/11/04 20:11:31;;;;;;;0.30;0.30;;;;;;;8.56;100.00;98615.44;6024540;23;20170;-81
2022/11/04 20:14:00;;;;;;;0.70;0.50;;;;;;;8.50;100.00;98622.50;6024584;23;20170;-81
2022/11/04 20:16:38;;;;;;;1.20;0.50;;;;;;;8.38;100.00;98630.50;6025170;23;20157;-82
2022/11/04 20:19:05;;;;;;;1.17;0.50;;;;;;;8.32;100.00;98646.59;6048903;23;20170;-82
2022/11/04 20:21:34;;;;;;;0.80;0.40;;;;;;;8.34;100.00;98650.69;6026495;23;20200;-81
2022/11/04 20:24:07;;;;;;;0.30;0.30;;;;;;;8.34;100.00;98644.53;6024901;23;20201;-82
2022/11/04 20:26:35;;;;;;;0.70;0.50;;;;;;;8.34;100.00;98647.22;6001676;23;20203;-81
2022/11/04 20:29:03;;;;;;;0.57;0.57;;;;;;;8.43;100.00;98637.00;6022974;23;20181;-82
2022/11/04 20:31:33;;;;;;;0.40;0.40;;;;;;;8.33;100.00;98659.72;6000641;23;20262;-81
2022/11/04 20:34:08;;;;;;;0.50;0.50;;;;;;;8.14;100.00;98650.13;6047987;23;20186;-83
2022/11/04 20:36:37;;;;;;;0.47;0.47;;;;;;;8.12;100.00;98659.41;6050304;23;20258;-82
2022/11/04 20:39:06;;;;;;;0.77;0.50;;;;;;;8.18;100.00;98653.97;6026962;23;20174;-82
2022/11/04 20:41:34;;;;;;;0.57;0.43;;;;;;;8.32;100.00;98660.78;6047454;23;20174;-82
2022/11/04 20:44:01;;;;;;;1.63;0.60;;;;;;;8.16;100.00;98653.41;6025298;23;20273;-82
2022/11/04 20:46:29;;;;;;;0.80;0.43;;;;;;;8.16;100.00;98656.06;6025976;23;20171;-82
2022/11/04 20:48:57;;;;;;;0.60;0.60;;;;;;;8.13;100.00;98659.16;5999745;23;20174;-82
2022/11/04 20:51:29;;;;;;;0.60;0.50;;;;;;;8.05;100.00;98669.34;6022813;23;20199;-82
2022/11/04 20:53:59;;;;;;;0.50;0.50;;;;;;;7.94;100.00;98676.25;6047468;23;20169;-82
2022/11/04 20:56:28;;;;;;;0.90;0.57;;;;;;;7.94;100.00;98662.91;6024813;23;20190;-81
2022/11/04 20:58:55;;;;;;;0.50;0.50;;;;;;;7.87;100.00;98673.69;6025664;23;20190;-82
2022/11/04 21:01:27;;;;;;;0.60;0.57;;;;;;;7.98;100.00;98672.09;6002420;23;20195;-82
2022/11/04 21:04:07;;;;;;;0.70;0.50;;;;;;;8.10;100.00;98682.81;6000801;23;20254;-82
2022/11/04 21:06:36;;;;;;;0.80;0.70;;;;;;;8.18;100.00;98691.31;6023693;23;20170;-82
2022/11/04 21:09:05;;;;;;;0.77;0.77;;;;;;;8.12;100.00;98686.09;6024872;23;20198;-82
2022/11/04 21:11:33;;;;;;;0.60;0.60;;;;;;;8.20;100.00;98691.09;6022657;23;20174;-81
2022/11/04 21:14:01;;;;;;;0.73;0.70;;;;;;;8.42;100.00;98684.22;6024337;23;20631;-81
2022/11/04 21:16:29;;;;;;;1.10;0.63;;;;;;;8.33;100.00;98689.09;6023451;23;20668;-82
2022/11/04 21:18:56;;;;;;;0.73;0.60;;;;;;;8.40;100.00;98684.44;6024393;23;20170;-82
2022/11/04 21:21:26;;;;;;;0.70;0.67;;;;;;;8.30;100.00;98686.88;6025412;23;20168;-82